Time;durP1;ratioP1;P1;durP2;ratioP2;P2;SDS_P1;SDS_P2;PMS_P1;PMS_P2;Temp;Humidity;BMP_temperature;BMP_pressure;BME280_temperature;BME280_humidity;BME280_pressure;Samples;Min_cycle;Max_cycle;Signal;HPM_P1;HPM_P2
2023/05/16 00:01:18;;;;;;;4.93;2.50;;;13.90;99.90;;;;;;4966000;28;20759;-73
2023/05/16 00:03:44;;;;;;;4.50;2.38;;;13.90;99.90;;;;;;4968601;28;20177;-72
2023/05/16 00:06:10;;;;;;;4.13;2.35;;;13.90;99.90;;;;;;4951017;28;20275;-74
2023/05/16 00:08:36;;;;;;;4.47;2.78;;;13.90;99.90;;;;;;4968293;28;20177;-73
2023/05/16 00:11:01;;;;;;;4.80;2.60;;;13.90;99.90;;;;;;4958159;28;20199;-69
2023/05/16 00:13:29;;;;;;;5.57;2.90;;;13.80;99.90;;;;;;4948739;28;20217;-73
2023/05/16 00:16:01;;;;;;;3.92;2.58;;;13.80;99.90;;;;;;4953175;28;20184;-75
2023/05/16 00:18:27;;;;;;;4.10;2.72;;;13.80;99.90;;;;;;4950443;29;20196;-75
2023/05/16 00:20:55;;;;;;;4.32;2.65;;;13.70;99.90;;;;;;4953078;28;20216;-72
2023/05/16 00:23:26;;;;;;;3.53;2.70;;;13.70;99.90;;;;;;4965013;28;20216;-72
2023/05/16 00:25:51;;;;;;;2.90;2.22;;;13.60;99.90;;;;;;4967134;28;20189;-75
2023/05/16 00:28:19;;;;;;;4.15;2.75;;;13.60;99.90;;;;;;4971757;28;20233;-75
2023/05/16 00:30:49;;;;;;;4.57;2.92;;;13.50;99.90;;;;;;4970123;28;20196;-75
2023/05/16 00:33:18;;;;;;;3.30;2.35;;;13.40;99.90;;;;;;4971267;28;20295;-76
2023/05/16 00:35:43;;;;;;;3.63;2.60;;;13.30;99.90;;;;;;4953075;29;20181;-76
2023/05/16 00:38:11;;;;;;;3.53;2.30;;;13.20;99.90;;;;;;4950680;29;20199;-73
2023/05/16 00:40:37;;;;;;;3.08;2.13;;;13.10;99.90;;;;;;4967333;28;20209;-76
2023/05/16 00:43:03;;;;;;;4.72;2.40;;;13.10;99.90;;;;;;4968240;28;20208;-75
2023/05/16 00:45:31;;;;;;;3.22;2.03;;;13.00;99.90;;;;;;4967003;28;20220;-75
2023/05/16 00:47:58;;;;;;;3.38;2.30;;;13.00;99.90;;;;;;4966096;28;20272;-75
2023/05/16 00:50:24;;;;;;;2.70;2.30;;;12.90;99.90;;;;;;4950735;29;20181;-69
2023/05/16 00:52:52;;;;;;;3.83;2.20;;;12.90;99.90;;;;;;4969570;28;20240;-76
2023/05/16 00:55:20;;;;;;;5.25;2.22;;;12.80;99.90;;;;;;4953673;29;20271;-76
2023/05/16 00:57:46;;;;;;;2.58;2.00;;;12.70;99.90;;;;;;4972422;28;20173;-77
2023/05/16 01:00:14;;;;;;;3.72;2.30;;;12.70;99.90;;;;;;4949384;29;20235;-74
2023/05/16 01:02:43;;;;;;;3.90;2.35;;;12.70;99.90;;;;;;4954097;29;20189;-77
2023/05/16 01:05:08;;;;;;;3.13;2.50;;;12.60;99.90;;;;;;4966229;28;20207;-73
2023/05/16 01:07:39;;;;;;;3.40;2.40;;;12.60;99.90;;;;;;4967092;28;20209;-77
2023/05/16 01:10:08;;;;;;;4.72;2.55;;;12.60;99.90;;;;;;4954257;28;20268;-76
2023/05/16 01:12:51;;;;;;;2.40;2.03;;;12.50;99.90;;;;;;4953310;28;20180;-75
2023/05/16 01:15:46;;;;;;;3.42;2.60;;;12.50;99.90;;;;;;4956651;28;20223;-79
2023/05/16 01:18:20;;;;;;;3.42;2.22;;;12.50;99.90;;;;;;4966397;28;20588;-75
2023/05/16 01:21:02;;;;;;;3.40;2.70;;;12.50;99.90;;;;;;4955998;28;20204;-77
2023/05/16 01:23:53;;;;;;;3.92;2.72;;;12.40;99.90;;;;;;4955996;29;20195;-79
2023/05/16 01:26:26;;;;;;;5.35;2.58;;;12.40;99.90;;;;;;4953552;28;20211;-77
2023/05/16 01:28:53;;;;;;;3.63;2.85;;;12.30;99.90;;;;;;4954290;28;20197;-75
2023/05/16 01:31:20;;;;;;;3.97;3.17;;;12.30;99.90;;;;;;4955016;28;20233;-76
2023/05/16 01:33:49;;;;;;;3.88;3.45;;;12.30;99.90;;;;;;4960170;28;20434;-78
2023/05/16 01:36:39;;;;;;;4.07;3.65;;;12.30;99.90;;;;;;4958820;28;20177;-72
2023/05/16 01:39:33;;;;;;;5.72;4.45;;;12.30;99.90;;;;;;4952754;29;20247;-73
2023/05/16 01:42:01;;;;;;;6.88;5.35;;;12.20;99.90;;;;;;4970325;28;20306;-74
2023/05/16 01:45:03;;;;;;;5.43;4.80;;;12.20;99.90;;;;;;4954429;29;20196;-77
2023/05/16 01:47:31;;;;;;;5.70;4.95;;;12.20;99.90;;;;;;4956660;28;20200;-74
2023/05/16 01:50:01;;;;;;;6.35;5.28;;;12.20;99.90;;;;;;4969014;28;20180;-79
2023/05/16 01:53:04;;;;;;;5.35;4.80;;;12.20;99.90;;;;;;4948330;29;20180;-77
2023/05/16 01:55:43;;;;;;;6.22;5.57;;;12.10;99.90;;;;;;4969934;28;20205;-77
2023/05/16 01:58:13;;;;;;;6.63;5.45;;;12.10;99.90;;;;;;4951550;29;20188;-76
2023/05/16 02:00:40;;;;;;;8.43;5.88;;;12.10;99.90;;;;;;4970749;28;20185;-77
2023/05/16 02:03:08;;;;;;;6.78;5.38;;;12.10;99.90;;;;;;4952418;29;20214;-74
2023/05/16 02:05:34;;;;;;;6.03;5.10;;;12.20;99.90;;;;;;4968330;28;20304;-72
2023/05/16 02:08:00;;;;;;;6.75;5.50;;;12.20;99.90;;;;;;4969367;28;20216;-77
2023/05/16 02:10:28;;;;;;;6.78;6.07;;;12.20;99.90;;;;;;4952158;29;20207;-74
2023/05/16 02:12:54;;;;;;;5.60;5.00;;;12.20;99.90;;;;;;4961436;28;20177;-78
2023/05/16 02:15:20;;;;;;;5.40;4.53;;;12.20;99.90;;;;;;4954659;28;20208;-78
2023/05/16 02:17:46;;;;;;;3.70;3.22;;;12.10;99.90;;;;;;4952264;28;20287;-76
2023/05/16 02:20:12;;;;;;;5.05;3.78;;;12.20;99.90;;;;;;4968387;28;20180;-78
2023/05/16 02:22:38;;;;;;;5.57;4.82;;;12.20;99.90;;;;;;4953445;28;20205;-78
2023/05/16 02:25:09;;;;;;;7.10;5.97;;;12.10;99.90;;;;;;4967979;28;20243;-78
2023/05/16 02:27:37;;;;;;;6.55;5.85;;;12.10;99.90;;;;;;4956005;29;20185;-76
2023/05/16 02:30:05;;;;;;;10.40;7.85;;;12.10;99.90;;;;;;4974461;28;20201;-79
2023/05/16 02:32:32;;;;;;;11.52;9.82;;;12.00;99.90;;;;;;4973394;28;20303;-79
2023/05/16 02:35:00;;;;;;;9.10;8.02;;;12.00;99.90;;;;;;4974093;28;20177;-76
2023/05/16 02:37:26;;;;;;;10.98;8.63;;;11.90;99.90;;;;;;4974291;28;20192;-78
2023/05/16 02:39:51;;;;;;;10.70;9.10;;;11.90;99.90;;;;;;4974119;28;20180;-80
2023/05/16 02:42:19;;;;;;;10.35;9.18;;;11.90;99.90;;;;;;4974232;28;20236;-79
2023/05/16 02:44:52;;;;;;;11.02;9.23;;;11.80;99.90;;;;;;4973525;28;20237;-80
2023/05/16 02:47:20;;;;;;;9.50;8.45;;;11.80;99.90;;;;;;4973803;28;20168;-80
2023/05/16 02:49:45;;;;;;;11.10;9.60;;;11.80;99.90;;;;;;4970752;28;20198;-80
2023/05/16 02:52:13;;;;;;;11.45;9.05;;;11.70;99.90;;;;;;4956635;28;20187;-78
2023/05/16 02:54:39;;;;;;;10.05;7.97;;;11.60;99.90;;;;;;4973592;28;20196;-79
2023/05/16 02:57:04;;;;;;;8.75;7.70;;;11.60;99.90;;;;;;4973531;28;20181;-80
2023/05/16 02:59:33;;;;;;;11.10;8.02;;;11.60;99.90;;;;;;4956447;29;20279;-80
2023/05/16 03:01:58;;;;;;;9.23;7.38;;;11.50;99.90;;;;;;4959264;28;20251;-78
2023/05/16 03:04:24;;;;;;;8.73;6.75;;;11.50;99.90;;;;;;4956181;28;20200;-83
2023/05/16 03:06:52;;;;;;;7.60;6.22;;;11.40;99.90;;;;;;4969673;28;20196;-77
2023/05/16 03:09:20;;;;;;;7.78;5.90;;;11.40;99.90;;;;;;4951815;28;20196;-81
2023/05/16 03:11:46;;;;;;;8.07;4.90;;;11.30;99.90;;;;;;4952612;29;20240;-79
2023/05/16 03:14:14;;;;;;;7.45;4.50;;;11.30;99.90;;;;;;4969419;28;20192;-80
2023/05/16 03:16:42;;;;;;;5.38;4.20;;;11.20;99.90;;;;;;4950900;28;20208;-79
2023/05/16 03:19:08;;;;;;;4.72;3.72;;;11.10;99.90;;;;;;4953593;29;20193;-73
2023/05/16 03:21:34;;;;;;;5.00;3.38;;;11.10;99.90;;;;;;4956945;28;20189;-75
2023/05/16 03:24:05;;;;;;;3.47;3.17;;;11.10;99.90;;;;;;4957654;28;20288;-75
2023/05/16 03:26:30;;;;;;;6.63;3.60;;;11.00;99.90;;;;;;4953280;29;20177;-77
2023/05/16 03:28:56;;;;;;;6.15;3.58;;;10.90;99.90;;;;;;4969725;28;20204;-72
2023/05/16 03:31:24;;;;;;;5.13;3.30;;;10.90;99.90;;;;;;4959515;28;20181;-78
2023/05/16 03:33:52;;;;;;;6.47;3.60;;;10.80;99.90;;;;;;4972537;28;20180;-77
2023/05/16 03:36:20;;;;;;;5.40;2.80;;;10.80;99.90;;;;;;4969414;28;20401;-76
2023/05/16 03:38:46;;;;;;;3.80;2.73;;;10.70;99.90;;;;;;4967786;28;20211;-76
2023/05/16 03:41:12;;;;;;;5.83;3.00;;;10.70;99.90;;;;;;4966005;28;20173;-77
2023/05/16 03:43:38;;;;;;;7.40;2.77;;;10.70;99.90;;;;;;4969077;28;20236;-76
2023/05/16 03:46:03;;;;;;;8.17;3.00;;;10.60;99.90;;;;;;4951922;29;20291;-76
2023/05/16 03:48:29;;;;;;;5.78;2.83;;;10.60;99.90;;;;;;4949171;28;20201;-77
2023/05/16 03:50:54;;;;;;;3.73;2.67;;;10.60;99.90;;;;;;4954708;28;20184;-78
2023/05/16 03:53:22;;;;;;;5.90;3.22;;;10.60;99.90;;;;;;4971551;28;20184;-78
2023/05/16 03:55:48;;;;;;;7.97;3.30;;;10.50;99.90;;;;;;4951161;28;20209;-77
2023/05/16 03:58:13;;;;;;;7.43;3.30;;;10.60;99.90;;;;;;4967734;28;21925;-77
2023/05/16 04:00:39;;;;;;;5.67;3.47;;;10.50;99.90;;;;;;4952316;29;20275;-77
2023/05/16 04:03:05;;;;;;;7.07;3.77;;;10.50;99.90;;;;;;4957809;28;20207;-78
2023/05/16 04:05:33;;;;;;;6.07;3.37;;;10.50;99.90;;;;;;4967402;28;20446;-72
2023/05/16 04:07:58;;;;;;;6.60;3.83;;;10.50;99.90;;;;;;4966016;28;20248;-77
2023/05/16 04:10:24;;;;;;;6.67;3.47;;;10.50;99.90;;;;;;4951167;28;20296;-76
2023/05/16 04:12:54;;;;;;;7.88;3.83;;;10.50;99.90;;;;;;4958555;28;20267;-75
2023/05/16 04:15:22;;;;;;;7.93;4.50;;;10.50;99.90;;;;;;4956526;28;20227;-77
2023/05/16 04:17:48;;;;;;;9.30;4.28;;;10.50;99.90;;;;;;4953246;28;20215;-73
2023/05/16 04:20:16;;;;;;;7.50;4.17;;;10.50;99.90;;;;;;4951636;28;20231;-71
2023/05/16 04:22:41;;;;;;;7.30;3.53;;;10.50;99.90;;;;;;4954293;28;20204;-78
2023/05/16 04:25:08;;;;;;;8.77;3.97;;;10.40;99.90;;;;;;4968672;28;20219;-75
2023/05/16 04:27:38;;;;;;;8.47;4.00;;;10.40;99.90;;;;;;4948255;28;20188;-78
2023/05/16 04:30:07;;;;;;;9.33;3.60;;;10.40;99.90;;;;;;4956235;28;20207;-80
2023/05/16 04:32:34;;;;;;;5.77;3.50;;;10.40;99.90;;;;;;4971541;28;20173;-79
2023/05/16 04:35:00;;;;;;;11.10;4.40;;;10.30;99.90;;;;;;4955959;28;20216;-77
2023/05/16 04:37:25;;;;;;;8.37;3.93;;;10.40;99.90;;;;;;4937130;29;20201;-79
2023/05/16 04:39:53;;;;;;;8.70;4.40;;;10.40;99.90;;;;;;4937339;29;20181;-80
2023/05/16 04:42:19;;;;;;;7.93;3.50;;;10.40;99.90;;;;;;4944650;28;20181;-76
2023/05/16 04:44:46;;;;;;;5.70;3.70;;;10.20;99.90;;;;;;4972653;28;20208;-78
2023/05/16 04:47:12;;;;;;;5.82;3.00;;;10.40;99.90;;;;;;4971378;28;20200;-78
2023/05/16 04:49:38;;;;;;;7.10;3.72;;;10.30;99.90;;;;;;4952672;28;20346;-74
2023/05/16 04:52:07;;;;;;;10.20;3.27;;;10.40;99.90;;;;;;4976699;28;20205;-77
2023/05/16 04:54:33;;;;;;;8.05;3.90;;;10.30;99.90;;;;;;4975378;28;20280;-77
2023/05/16 04:56:58;;;;;;;8.27;3.58;;;10.30;99.90;;;;;;4974118;28;20201;-75
2023/05/16 04:59:24;;;;;;;5.22;3.03;;;10.20;99.90;;;;;;4955294;29;20188;-73
2023/05/16 05:01:50;;;;;;;10.63;3.43;;;10.30;99.90;;;;;;4956102;29;20197;-76
2023/05/16 05:04:16;;;;;;;8.18;3.58;;;10.30;99.90;;;;;;4970880;28;20209;-77
2023/05/16 05:06:42;;;;;;;6.75;4.00;;;10.30;99.90;;;;;;4954185;29;20176;-73
2023/05/16 05:09:10;;;;;;;11.25;4.60;;;10.30;99.90;;;;;;4966037;28;20291;-78
2023/05/16 05:11:38;;;;;;;9.90;4.63;;;10.40;99.90;;;;;;4954256;28;20176;-76
2023/05/16 05:14:06;;;;;;;11.95;4.32;;;10.30;99.90;;;;;;4962381;28;20177;-79
2023/05/16 05:16:32;;;;;;;11.23;4.00;;;10.40;99.90;;;;;;4954936;28;20197;-77
2023/05/16 05:18:57;;;;;;;5.30;3.20;;;10.20;99.90;;;;;;4953481;29;20179;-76
2023/05/16 05:21:24;;;;;;;8.00;3.53;;;10.30;99.90;;;;;;4959334;28;20180;-75
2023/05/16 05:23:50;;;;;;;9.77;3.30;;;10.40;99.90;;;;;;4954203;28;20193;-72
2023/05/16 05:26:16;;;;;;;6.72;3.72;;;10.30;99.90;;;;;;4970139;28;20207;-73
2023/05/16 05:28:42;;;;;;;8.68;3.35;;;10.30;99.90;;;;;;4956457;28;20215;-77
2023/05/16 05:31:07;;;;;;;6.80;3.57;;;10.40;99.90;;;;;;4959791;28;20211;-74
2023/05/16 05:33:33;;;;;;;7.32;3.15;;;10.40;99.90;;;;;;4953911;29;20216;-76
2023/05/16 05:36:01;;;;;;;9.20;3.50;;;10.40;99.90;;;;;;4957188;28;20188;-72
2023/05/16 05:38:31;;;;;;;8.47;3.10;;;10.40;99.90;;;;;;4970539;28;20188;-75
2023/05/16 05:40:57;;;;;;;6.07;3.07;;;10.40;99.90;;;;;;4969150;28;20215;-76
2023/05/16 05:43:23;;;;;;;9.57;3.55;;;10.40;99.90;;;;;;4952264;28;20200;-75
2023/05/16 05:45:50;;;;;;;6.82;3.30;;;10.40;99.90;;;;;;4969565;28;20208;-75
2023/05/16 05:48:19;;;;;;;8.93;4.03;;;10.50;99.90;;;;;;4954070;29;20184;-72
2023/05/16 05:50:44;;;;;;;4.82;2.92;;;10.50;99.90;;;;;;4953150;28;20200;-76
2023/05/16 05:53:10;;;;;;;9.32;3.47;;;10.50;99.90;;;;;;4970645;28;20196;-69
2023/05/16 05:55:36;;;;;;;8.25;3.08;;;10.60;99.90;;;;;;4952459;28;20181;-75
2023/05/16 05:58:01;;;;;;;7.97;3.78;;;10.60;99.90;;;;;;4955292;28;20221;-73
2023/05/16 06:00:28;;;;;;;8.43;3.17;;;10.60;99.90;;;;;;4970322;28;20192;-75
2023/05/16 06:02:56;;;;;;;6.68;2.65;;;10.60;99.90;;;;;;4955717;28;20195;-75
2023/05/16 06:05:22;;;;;;;4.67;2.70;;;10.60;99.90;;;;;;4970559;28;20209;-75
2023/05/16 06:07:48;;;;;;;6.93;2.67;;;10.70;99.90;;;;;;4957635;28;20184;-73
2023/05/16 06:10:13;;;;;;;7.60;2.67;;;10.60;99.90;;;;;;4967460;28;20195;-77
2023/05/16 06:12:39;;;;;;;6.63;2.50;;;10.60;99.90;;;;;;4955120;28;20177;-72
2023/05/16 06:15:05;;;;;;;8.30;2.63;;;10.60;99.90;;;;;;4951363;29;20203;-75
2023/05/16 06:17:31;;;;;;;8.63;2.63;;;10.60;99.90;;;;;;4953652;28;20200;-75
2023/05/16 06:19:59;;;;;;;7.50;3.23;;;10.60;99.90;;;;;;4974049;28;20259;-73
2023/05/16 06:22:24;;;;;;;6.70;2.63;;;10.50;99.90;;;;;;4963212;28;20192;-76
2023/05/16 06:24:52;;;;;;;4.38;2.40;;;10.50;99.90;;;;;;4954518;29;20201;-74
2023/05/16 06:27:17;;;;;;;7.82;3.25;;;10.50;99.90;;;;;;4956711;29;20189;-75
2023/05/16 06:29:43;;;;;;;8.80;2.92;;;10.60;99.90;;;;;;4970884;28;20399;-75
2023/05/16 06:32:11;;;;;;;10.27;3.03;;;10.60;99.90;;;;;;4973907;28;20177;-75
2023/05/16 06:34:37;;;;;;;7.80;3.10;;;10.60;99.90;;;;;;4974094;28;20173;-77
2023/05/16 06:37:02;;;;;;;6.55;3.25;;;10.70;99.90;;;;;;4973157;28;20211;-74
2023/05/16 06:39:30;;;;;;;9.25;3.30;;;10.80;99.90;;;;;;4973098;28;20267;-77
2023/05/16 06:41:56;;;;;;;6.45;2.80;;;10.90;99.90;;;;;;4973190;28;20177;-74
2023/05/16 06:44:22;;;;;;;7.13;3.10;;;11.00;99.90;;;;;;4957960;29;20212;-74
2023/05/16 06:46:50;;;;;;;6.95;2.58;;;11.10;99.90;;;;;;4973742;28;20173;-75
2023/05/16 06:49:18;;;;;;;8.15;2.53;;;11.10;99.90;;;;;;4960257;28;20224;-75
2023/05/16 06:51:43;;;;;;;5.50;2.30;;;11.20;99.90;;;;;;4973138;28;20181;-72
2023/05/16 06:54:09;;;;;;;5.85;2.10;;;11.20;99.90;;;;;;4973547;28;20181;-73
2023/05/16 06:56:39;;;;;;;10.35;2.30;;;11.20;99.90;;;;;;4973625;28;20200;-73
2023/05/16 06:59:10;;;;;;;6.97;2.10;;;11.30;99.90;;;;;;4973051;28;20177;-73
2023/05/16 07:01:37;;;;;;;6.40;2.00;;;11.10;99.90;;;;;;4973292;28;20184;-72
2023/05/16 07:04:06;;;;;;;8.23;1.98;;;11.20;99.90;;;;;;4956883;29;20180;-73
2023/05/16 07:06:31;;;;;;;8.90;2.05;;;11.30;99.90;;;;;;4973229;28;20173;-74
2023/05/16 07:08:57;;;;;;;5.72;1.50;;;11.40;99.90;;;;;;4973332;28;20197;-73
2023/05/16 07:11:25;;;;;;;4.22;1.50;;;11.50;99.90;;;;;;4969593;28;20177;-69
2023/05/16 07:13:53;;;;;;;4.30;1.60;;;11.60;99.90;;;;;;4966292;28;20176;-73
2023/05/16 07:16:18;;;;;;;4.85;1.58;;;11.60;99.90;;;;;;4953450;28;20200;-70
2023/05/16 07:18:44;;;;;;;4.50;1.80;;;11.70;99.90;;;;;;4953436;28;20345;-71
2023/05/16 07:21:10;;;;;;;8.27;2.05;;;11.80;99.90;;;;;;4956555;28;20187;-72
2023/05/16 07:23:38;;;;;;;3.17;1.85;;;11.90;99.90;;;;;;4966394;28;20296;-73
2023/05/16 07:26:03;;;;;;;4.38;1.55;;;12.00;99.90;;;;;;4955413;28;20209;-73
2023/05/16 07:28:29;;;;;;;6.82;1.90;;;12.10;99.90;;;;;;4955414;28;20177;-71
2023/05/16 07:31:00;;;;;;;4.53;1.52;;;12.20;99.90;;;;;;4954980;28;20213;-73
2023/05/16 07:33:28;;;;;;;7.65;2.22;;;12.20;99.90;;;;;;4954835;29;20184;-73
2023/05/16 07:35:56;;;;;;;6.20;1.83;;;12.40;99.90;;;;;;4957497;28;20225;-72
2023/05/16 07:38:21;;;;;;;3.67;1.30;;;12.40;99.90;;;;;;4967773;28;20184;-72
2023/05/16 07:40:47;;;;;;;6.85;1.98;;;12.50;99.90;;;;;;4955784;28;20180;-74
2023/05/16 07:43:17;;;;;;;4.45;1.35;;;12.60;99.90;;;;;;4967267;28;20287;-74
2023/05/16 07:45:45;;;;;;;2.85;1.40;;;12.60;99.90;;;;;;4951636;29;20197;-70
2023/05/16 07:48:10;;;;;;;4.88;1.33;;;12.70;99.90;;;;;;4967929;28;20176;-70
2023/05/16 07:50:38;;;;;;;5.18;1.60;;;12.80;99.90;;;;;;4965375;28;20201;-72
2023/05/16 07:53:06;;;;;;;4.35;1.50;;;12.90;99.90;;;;;;4953099;29;20184;-74
2023/05/16 07:55:32;;;;;;;2.97;1.10;;;13.00;99.90;;;;;;4950295;28;20184;-73
2023/05/16 07:57:58;;;;;;;4.68;1.20;;;13.10;99.90;;;;;;4969018;28;20218;-72
2023/05/16 08:00:23;;;;;;;3.42;1.55;;;13.30;99.90;;;;;;4953196;29;20263;-72
2023/05/16 08:02:51;;;;;;;3.63;1.20;;;13.30;99.90;;;;;;4952183;29;20271;-71
2023/05/16 08:05:17;;;;;;;5.25;1.30;;;13.40;99.90;;;;;;4955872;28;20200;-73
2023/05/16 08:07:43;;;;;;;4.75;1.70;;;13.40;99.90;;;;;;4951868;29;20228;-72
2023/05/16 08:10:09;;;;;;;5.60;1.40;;;13.40;99.90;;;;;;4945499;29;20208;-73
2023/05/16 08:12:34;;;;;;;5.22;1.27;;;13.40;99.90;;;;;;4967679;28;20231;-71
2023/05/16 08:15:00;;;;;;;4.72;1.15;;;13.30;99.90;;;;;;4961289;28;20200;-72
2023/05/16 08:17:27;;;;;;;4.00;1.13;;;13.20;99.90;;;;;;4955946;28;20196;-70
2023/05/16 08:19:53;;;;;;;5.57;1.65;;;13.10;99.90;;;;;;4965403;28;20276;-75
2023/05/16 08:22:19;;;;;;;3.50;1.67;;;13.10;99.90;;;;;;4962161;28;20271;-74
2023/05/16 08:24:47;;;;;;;2.92;1.20;;;13.00;99.90;;;;;;4958774;28;20250;-67
2023/05/16 08:27:12;;;;;;;4.63;1.20;;;12.90;99.90;;;;;;4972672;28;20208;-74
2023/05/16 08:29:38;;;;;;;5.75;1.30;;;12.80;99.90;;;;;;4975821;28;20215;-72
2023/05/16 08:32:07;;;;;;;4.13;1.15;;;12.80;99.90;;;;;;4976007;28;20197;-75
2023/05/16 08:34:35;;;;;;;3.55;1.00;;;12.70;99.90;;;;;;4975833;28;20177;-74
2023/05/16 08:37:01;;;;;;;3.85;1.45;;;12.80;99.90;;;;;;4975995;28;20177;-73
2023/05/16 08:39:31;;;;;;;3.63;1.25;;;12.70;99.90;;;;;;4976037;28;20200;-72
2023/05/16 08:41:57;;;;;;;3.75;1.33;;;12.70;99.90;;;;;;4975873;28;20173;-72
2023/05/16 08:44:23;;;;;;;3.30;1.10;;;12.80;99.90;;;;;;4975560;28;20176;-72
2023/05/16 08:46:58;;;;;;;4.82;1.45;;;12.80;99.90;;;;;;4970653;28;20184;-73
2023/05/16 08:49:26;;;;;;;6.35;1.70;;;12.90;99.90;;;;;;4940366;29;20200;-74
2023/05/16 08:51:56;;;;;;;5.15;1.30;;;12.90;99.90;;;;;;4958963;28;20189;-73
2023/05/16 08:54:22;;;;;;;3.42;1.20;;;13.00;99.90;;;;;;4975717;28;20227;-71
2023/05/16 08:56:49;;;;;;;6.05;1.25;;;13.00;99.90;;;;;;4959566;29;20172;-73
2023/05/16 08:59:18;;;;;;;3.80;1.00;;;13.10;99.90;;;;;;4975700;28;20200;-73
2023/05/16 09:01:43;;;;;;;3.30;1.20;;;13.10;99.90;;;;;;4975562;28;20175;-73
2023/05/16 09:04:09;;;;;;;3.63;1.33;;;13.20;99.90;;;;;;4975003;28;20177;-74
2023/05/16 09:06:36;;;;;;;3.35;1.30;;;13.30;99.90;;;;;;4971851;28;20507;-75
2023/05/16 09:09:03;;;;;;;4.75;1.20;;;13.30;99.90;;;;;;4957934;28;20244;-73
2023/05/16 09:11:29;;;;;;;5.07;1.45;;;13.40;99.90;;;;;;4971708;28;20204;-74
2023/05/16 09:13:54;;;;;;;2.45;1.15;;;13.50;99.90;;;;;;4973529;28;20356;-73
2023/05/16 09:16:23;;;;;;;4.18;1.27;;;13.60;99.90;;;;;;4967601;28;20181;-73
2023/05/16 09:18:57;;;;;;;2.70;1.40;;;13.70;99.90;;;;;;4955300;28;20196;-73
2023/05/16 09:21:30;;;;;;;3.08;1.40;;;13.80;99.90;;;;;;4959632;28;20293;-73
2023/05/16 09:24:01;;;;;;;2.63;1.50;;;13.90;99.90;;;;;;4972648;28;20180;-72
2023/05/16 09:26:27;;;;;;;3.97;1.70;;;14.00;99.90;;;;;;4956013;28;20208;-73
2023/05/16 09:28:54;;;;;;;6.45;2.20;;;14.10;99.90;;;;;;4955168;29;20232;-69
2023/05/16 09:31:20;;;;;;;5.55;2.13;;;14.10;99.90;;;;;;4959765;28;20211;-73
2023/05/16 09:33:47;;;;;;;5.47;2.13;;;14.10;99.90;;;;;;4968536;28;20228;-73
2023/05/16 09:36:15;;;;;;;5.75;2.58;;;14.10;99.90;;;;;;4951999;29;20189;-73
2023/05/16 09:38:44;;;;;;;3.72;2.15;;;14.10;99.90;;;;;;4963187;28;20196;-74
2023/05/16 09:41:10;;;;;;;7.15;2.08;;;14.20;99.90;;;;;;4971239;28;20200;-72
2023/05/16 09:43:42;;;;;;;4.75;2.00;;;14.20;99.90;;;;;;4955392;29;20185;-70
2023/05/16 09:46:11;;;;;;;7.88;2.28;;;14.20;99.90;;;;;;4955401;29;20212;-73
2023/05/16 09:48:43;;;;;;;4.90;1.90;;;14.30;99.90;;;;;;4959345;28;20200;-72
2023/05/16 09:51:11;;;;;;;5.30;1.83;;;14.30;99.90;;;;;;4957826;28;20188;-72
2023/05/16 09:53:38;;;;;;;3.30;1.60;;;14.40;99.90;;;;;;4967600;28;20247;-73
2023/05/16 09:56:09;;;;;;;4.85;1.80;;;14.40;99.90;;;;;;4971189;28;20296;-74
2023/05/16 09:58:37;;;;;;;4.00;1.60;;;14.50;99.90;;;;;;4953428;29;20212;-72
2023/05/16 10:01:03;;;;;;;3.58;1.40;;;14.70;99.90;;;;;;4959189;28;20205;-69
2023/05/16 10:03:29;;;;;;;3.53;1.40;;;14.80;99.90;;;;;;4959262;28;20215;-73
2023/05/16 10:05:55;;;;;;;5.43;1.60;;;15.00;99.90;;;;;;4969772;28;20200;-74
2023/05/16 10:08:28;;;;;;;3.38;1.10;;;15.00;99.90;;;;;;4969458;28;20212;-70
2023/05/16 10:10:55;;;;;;;2.95;1.20;;;15.10;99.90;;;;;;4970771;28;20267;-72
2023/05/16 10:13:27;;;;;;;3.17;1.20;;;15.20;99.90;;;;;;4951797;28;20197;-74
2023/05/16 10:15:56;;;;;;;4.05;1.30;;;15.30;99.90;;;;;;4970717;28;20263;-74
2023/05/16 10:18:28;;;;;;;1.98;1.13;;;15.30;99.90;;;;;;4954169;28;20192;-74
2023/05/16 10:20:56;;;;;;;2.05;1.45;;;15.40;99.90;;;;;;4957184;29;20272;-73
2023/05/16 10:23:26;;;;;;;4.68;1.65;;;15.30;99.90;;;;;;4957506;28;20196;-73
2023/05/16 10:25:54;;;;;;;5.03;1.80;;;15.40;99.90;;;;;;4950221;28;20200;-72
2023/05/16 10:28:20;;;;;;;5.78;1.95;;;15.50;99.90;;;;;;4973986;28;20183;-63
2023/05/16 10:30:49;;;;;;;3.13;1.67;;;15.60;99.90;;;;;;4974224;28;20169;-75
2023/05/16 10:33:19;;;;;;;4.63;1.63;;;15.60;99.90;;;;;;4973904;28;20255;-73
2023/05/16 10:35:45;;;;;;;2.78;1.70;;;15.70;99.90;;;;;;4955681;28;20205;-73
2023/05/16 10:38:15;;;;;;;5.28;1.80;;;15.90;99.90;;;;;;4938479;29;20177;-74
2023/05/16 10:40:44;;;;;;;5.55;1.60;;;16.10;99.90;;;;;;4938264;29;20177;-72
2023/05/16 10:43:11;;;;;;;2.75;1.85;;;16.30;99.90;;;;;;4947100;29;20200;-74
2023/05/16 10:45:40;;;;;;;5.35;1.73;;;16.40;99.90;;;;;;4972735;28;20216;-74
2023/05/16 10:48:08;;;;;;;4.20;2.03;;;16.30;99.90;;;;;;4963666;28;20187;-73
2023/05/16 10:50:40;;;;;;;5.00;1.45;;;16.30;99.90;;;;;;4957496;29;20264;-75
2023/05/16 10:53:21;;;;;;;3.53;1.70;;;16.40;99.90;;;;;;4957631;29;20172;-74
2023/05/16 10:56:10;;;;;;;3.65;1.45;;;16.60;99.90;;;;;;4973537;28;20215;-75
2023/05/16 10:58:38;;;;;;;2.83;1.63;;;16.90;99.90;;;;;;4957285;29;20161;-75
2023/05/16 11:01:21;;;;;;;3.85;1.80;;;17.10;99.90;;;;;;4973081;28;20184;-75
2023/05/16 11:03:58;;;;;;;4.63;1.73;;;17.30;99.90;;;;;;4958043;28;20208;-75
2023/05/16 11:06:31;;;;;;;3.30;1.52;;;17.40;99.90;;;;;;4956997;29;20328;-74
2023/05/16 11:09:09;;;;;;;2.75;1.40;;;17.60;99.90;;;;;;4954979;29;20176;-75
2023/05/16 11:11:40;;;;;;;2.92;1.35;;;17.80;99.90;;;;;;4956964;28;20193;-74
2023/05/16 11:14:06;;;;;;;4.18;1.42;;;17.80;99.90;;;;;;4960764;28;20251;-75
2023/05/16 11:16:33;;;;;;;4.05;1.55;;;17.80;99.90;;;;;;4954457;28;20193;-73
2023/05/16 11:19:06;;;;;;;2.65;1.10;;;17.70;99.90;;;;;;4954436;28;20184;-75
2023/05/16 11:22:09;;;;;;;3.53;1.30;;;17.80;99.90;;;;;;4970210;28;20191;-74
2023/05/16 11:24:36;;;;;;;3.45;1.50;;;17.80;99.90;;;;;;4939565;29;20220;-74
2023/05/16 11:27:05;;;;;;;3.50;1.23;;;17.90;99.90;;;;;;4969311;28;20256;-75
2023/05/16 11:29:33;;;;;;;2.03;1.10;;;17.80;99.90;;;;;;4953068;28;20192;-74
2023/05/16 11:32:04;;;;;;;4.00;1.50;;;17.80;99.90;;;;;;4954302;28;20204;-73
2023/05/16 11:34:38;;;;;;;3.22;1.20;;;17.70;99.90;;;;;;4968999;28;20200;-75
2023/05/16 11:37:09;;;;;;;2.03;1.00;;;17.60;99.90;;;;;;4966454;28;20177;-75
2023/05/16 11:39:35;;;;;;;3.92;1.13;;;17.60;99.90;;;;;;4969430;28;20180;-73
2023/05/16 11:42:01;;;;;;;3.30;1.20;;;17.70;99.90;;;;;;4969060;28;20181;-73
2023/05/16 11:44:26;;;;;;;3.22;1.13;;;17.80;99.90;;;;;;4952480;28;20260;-75
2023/05/16 11:46:52;;;;;;;2.17;1.23;;;17.90;99.90;;;;;;4951966;29;20183;-74
2023/05/16 11:49:18;;;;;;;6.32;1.38;;;18.00;99.90;;;;;;4951606;29;20183;-75
2023/05/16 11:51:46;;;;;;;2.10;0.90;;;17.90;99.90;;;;;;4958855;28;20272;-72
2023/05/16 11:54:14;;;;;;;2.00;1.00;;;17.80;99.90;;;;;;4967370;28;20177;-75
2023/05/16 11:56:40;;;;;;;3.00;1.20;;;17.70;99.90;;;;;;4953290;28;20208;-76
2023/05/16 11:59:06;;;;;;;3.63;1.17;;;17.70;99.90;;;;;;4956236;28;20255;-75
2023/05/16 12:01:37;;;;;;;2.40;1.20;;;17.70;99.90;;;;;;4960260;28;20229;-71
2023/05/16 12:04:11;;;;;;;5.25;1.42;;;17.80;99.90;;;;;;4951350;28;20274;-74
2023/05/16 12:06:37;;;;;;;3.28;1.20;;;17.90;99.90;;;;;;4953419;28;20208;-75
2023/05/16 12:09:09;;;;;;;2.95;1.20;;;17.90;99.90;;;;;;4966749;28;20184;-74
2023/05/16 12:11:44;;;;;;;5.05;1.30;;;17.90;99.90;;;;;;4952356;29;20192;-74
2023/05/16 12:14:12;;;;;;;2.17;0.98;;;17.90;99.90;;;;;;4951259;29;20180;-72
2023/05/16 12:16:41;;;;;;;1.98;1.10;;;17.90;99.90;;;;;;4957608;28;20188;-74
2023/05/16 12:19:07;;;;;;;2.05;1.13;;;17.90;99.90;;;;;;4959951;28;20308;-75
2023/05/16 12:21:36;;;;;;;3.67;1.40;;;17.90;99.90;;;;;;4966540;28;20188;-73
2023/05/16 12:24:03;;;;;;;2.63;1.27;;;17.70;99.90;;;;;;4952829;29;20180;-68
2023/05/16 12:26:32;;;;;;;2.75;1.40;;;17.60;99.90;;;;;;4970728;28;20220;-75
2023/05/16 12:29:04;;;;;;;4.47;1.30;;;17.50;99.90;;;;;;4971855;28;20195;-75
2023/05/16 12:31:35;;;;;;;3.47;1.40;;;17.30;99.90;;;;;;4972405;28;20161;-75
2023/05/16 12:34:03;;;;;;;2.42;1.20;;;17.30;99.90;;;;;;4971904;28;20205;-72
2023/05/16 12:36:36;;;;;;;2.55;1.30;;;17.20;99.90;;;;;;4972262;28;20187;-74
2023/05/16 12:39:04;;;;;;;2.92;1.30;;;17.30;99.90;;;;;;4972264;28;20181;-75
2023/05/16 12:41:40;;;;;;;3.05;1.75;;;17.40;99.90;;;;;;4972438;28;20212;-74
2023/05/16 12:44:15;;;;;;;3.83;1.48;;;17.50;99.90;;;;;;4972142;28;20179;-74
2023/05/16 12:46:50;;;;;;;3.45;1.50;;;17.70;99.90;;;;;;4956233;28;20307;-75
2023/05/16 12:49:22;;;;;;;8.63;1.92;;;17.90;99.90;;;;;;4972219;28;20182;-76
2023/05/16 12:51:52;;;;;;;5.15;1.70;;;18.20;99.90;;;;;;4972213;28;20172;-72